Time;durP1;ratioP1;P1;durP2;ratioP2;P2;SDS_P1;SDS_P2;PMS_P1;PMS_P2;Temp;Humidity;BMP_temperature;BMP_pressure;BME280_temperature;BME280_humidity;BME280_pressure;Samples;Min_cycle;Max_cycle;Signal;HPM_P1;HPM_P2
2022/12/19 00:05:09;;;;;;;32.20;19.73;;;1.90;99.90;;;;;;2616098;54;20130;-79
2022/12/19 00:14:19;;;;;;;32.97;18.47;;;2.10;99.90;;;;;;2616394;54;20415;-78
2022/12/19 00:20:07;;;;;;;30.03;20.70;;;2.10;99.90;;;;;;2616622;54;20371;-79
2022/12/19 00:32:10;;;;;;;39.03;21.90;;;2.10;99.90;;;;;;2614313;54;21484;-80
2022/12/19 00:37:58;;;;;;;36.47;19.33;;;2.10;99.90;;;;;;2615330;54;20134;-80
2022/12/19 00:43:50;;;;;;;34.77;21.40;;;2.20;99.90;;;;;;2616005;54;20127;-80
2022/12/19 00:49:38;;;;;;;31.50;18.00;;;2.30;99.90;;;;;;2615792;54;20438;-78
2022/12/19 00:55:26;;;;;;;33.27;20.00;;;2.20;99.90;;;;;;2615853;54;20156;-78
2022/12/19 01:07:41;;;;;;;30.17;18.23;;;2.30;99.90;;;;;;2615111;54;20400;-75
2022/12/19 01:13:30;;;;;;;32.83;16.27;;;2.40;99.90;;;;;;2615179;54;20523;-75
2022/12/19 01:19:19;;;;;;;28.30;17.37;;;2.50;99.90;;;;;;2615159;54;20950;-76
2022/12/19 01:25:07;;;;;;;25.93;18.43;;;2.60;99.90;;;;;;2615940;39;20870;-74
2022/12/19 01:30:58;;;;;;;34.50;19.20;;;2.70;99.90;;;;;;2615107;54;20130;-74
2022/12/19 01:36:45;;;;;;;27.37;15.23;;;2.80;99.90;;;;;;2614653;54;20391;-75
2022/12/19 01:42:35;;;;;;;33.70;21.23;;;2.90;99.90;;;;;;2614045;54;20127;-74
2022/12/19 01:54:55;;;;;;;37.77;21.90;;;3.00;99.90;;;;;;2615148;54;20385;-78
2022/12/19 01:57:21;;;;;;;39.07;20.70;;;2.90;99.90;;;;;;2614274;54;20416;-78
2022/12/19 01:59:52;;;;;;;25.83;16.57;;;2.90;99.90;;;;;;2615389;54;20624;-77
2022/12/19 02:05:40;;;;;;;32.30;19.00;;;2.90;99.90;;;;;;2615550;54;20392;-78
2022/12/19 02:11:31;;;;;;;32.57;19.70;;;3.00;99.90;;;;;;2616089;54;20378;-75
2022/12/19 02:20:46;;;;;;;44.10;22.23;;;3.10;99.90;;;;;;2615847;54;20414;-78
2022/12/19 02:26:36;;;;;;;26.87;15.13;;;3.40;99.90;;;;;;2615569;54;20422;-78
2022/12/19 02:38:55;;;;;;;26.77;18.17;;;3.70;99.90;;;;;;2615456;54;20410;-76
2022/12/19 02:44:49;;;;;;;30.80;21.43;;;3.80;99.90;;;;;;2614864;54;20371;-78
2022/12/19 02:50:43;;;;;;;26.07;18.50;;;4.00;99.90;;;;;;2614833;54;20398;-77
2022/12/19 03:20:38;;;;;;;30.30;17.83;;;4.30;99.90;;;;;;2616341;39;20777;-78
2022/12/19 03:26:35;;;;;;;29.93;16.77;;;4.30;99.90;;;;;;2614973;54;20435;-75
2022/12/19 03:32:24;;;;;;;29.37;19.30;;;4.50;99.90;;;;;;2617089;54;20499;-76
2022/12/19 03:38:14;;;;;;;24.53;15.60;;;4.70;99.90;;;;;;2616073;39;20806;-77
2022/12/19 03:44:04;;;;;;;18.37;13.30;;;4.90;99.90;;;;;;2615677;54;20963;-77
2022/12/19 03:49:52;;;;;;;23.47;14.57;;;4.90;99.90;;;;;;2615046;54;20403;-76
2022/12/19 04:02:28;;;;;;;24.00;18.17;;;5.00;99.90;;;;;;2616609;54;20387;-76
2022/12/19 04:08:16;;;;;;;21.50;17.37;;;5.00;99.90;;;;;;2617444;54;20391;-76
2022/12/19 04:14:08;;;;;;;28.60;17.67;;;5.00;99.90;;;;;;2616116;54;20443;-75
2022/12/19 04:29:37;;;;;;;24.60;18.83;;;4.90;99.90;;;;;;2615960;54;20383;-76
2022/12/19 04:35:25;;;;;;;21.40;13.20;;;5.00;99.90;;;;;;2616973;54;20407;-80
2022/12/19 04:41:12;;;;;;;33.63;17.97;;;5.00;99.90;;;;;;2617075;39;20916;-79
2022/12/19 04:47:00;;;;;;;25.20;15.80;;;5.00;99.90;;;;;;2616804;54;20146;-76
2022/12/19 04:52:48;;;;;;;25.40;16.27;;;5.10;99.90;;;;;;2617270;54;20122;-76
2022/12/19 04:58:35;;;;;;;29.93;18.63;;;5.00;99.90;;;;;;2615350;54;20169;-76
2022/12/19 05:04:23;;;;;;;32.00;17.70;;;5.00;99.90;;;;;;2613903;54;20165;-76
2022/12/19 05:10:11;;;;;;;26.67;16.87;;;5.20;99.90;;;;;;2614050;39;20589;-76
2022/12/19 05:16:04;;;;;;;32.53;18.10;;;5.30;99.90;;;;;;2614951;54;20126;-78
2022/12/19 05:18:43;;;;;;;32.37;19.07;;;5.40;99.90;;;;;;2614330;54;20420;-76
2022/12/19 05:21:09;;;;;;;27.10;17.57;;;5.40;99.90;;;;;;2614619;54;20408;-76
2022/12/19 05:26:57;;;;;;;23.23;15.53;;;5.50;99.90;;;;;;2615846;54;20418;-76
2022/12/19 05:32:45;;;;;;;24.00;14.87;;;5.50;99.90;;;;;;2614612;54;20122;-77
2022/12/19 05:38:33;;;;;;;33.80;15.93;;;5.50;99.90;;;;;;2614460;54;20155;-77
2022/12/19 05:44:21;;;;;;;21.73;14.63;;;5.50;99.90;;;;;;2615952;54;20403;-78
2022/12/19 05:50:09;;;;;;;24.13;15.23;;;5.50;99.90;;;;;;2617782;54;20134;-79
2022/12/19 06:02:18;;;;;;;26.83;16.73;;;5.50;99.90;;;;;;2617783;54;20406;-79
2022/12/19 06:08:06;;;;;;;25.37;16.70;;;5.50;99.90;;;;;;2618663;54;20154;-78
2022/12/19 06:13:54;;;;;;;22.40;13.00;;;5.50;99.90;;;;;;2618683;46;20153;-78
2022/12/19 06:23:16;;;;;;;29.53;18.87;;;5.60;99.90;;;;;;2616894;54;20450;-79
2022/12/19 06:29:05;;;;;;;27.50;19.07;;;5.70;99.90;;;;;;2617323;54;20395;-79
2022/12/19 06:34:53;;;;;;;311.83;46.83;;;5.60;99.90;;;;;;2617291;54;20455;-79
2022/12/19 06:46:51;;;;;;;23.90;14.10;;;5.80;99.90;;;;;;2612572;54;20520;-79
2022/12/19 06:52:39;;;;;;;24.70;16.73;;;6.00;99.90;;;;;;2614155;54;20359;-79
2022/12/19 06:55:48;;;;;;;22.23;14.57;;;6.10;99.90;;;;;;2615040;54;20387;-80
2022/12/19 06:58:13;;;;;;;22.80;14.90;;;6.20;99.90;;;;;;2615410;47;20158;-81
2022/12/19 07:04:01;;;;;;;18.77;11.67;;;6.30;99.90;;;;;;2617833;39;20431;-82
2022/12/19 07:07:19;;;;;;;20.50;15.40;;;6.30;99.90;;;;;;2617047;39;20937;-80
2022/12/19 07:09:45;;;;;;;23.50;15.10;;;6.20;99.90;;;;;;2616947;54;20399;-80
2022/12/19 07:15:33;;;;;;;23.87;13.70;;;6.20;99.90;;;;;;2616358;54;20154;-81
2022/12/19 07:18:45;;;;;;;23.50;17.57;;;6.30;99.90;;;;;;2616823;54;20406;-80
2022/12/19 07:21:11;;;;;;;17.80;14.17;;;6.40;99.90;;;;;;2616707;39;20915;-79
2022/12/19 07:26:59;;;;;;;19.67;12.47;;;6.50;99.90;;;;;;2615500;54;20134;-80
2022/12/19 07:32:47;;;;;;;24.60;12.57;;;6.50;99.90;;;;;;2618001;54;20138;-81
2022/12/19 07:38:35;;;;;;;23.70;14.80;;;6.50;99.90;;;;;;2615079;54;20158;-77
2022/12/19 07:44:22;;;;;;;21.20;14.07;;;6.50;99.90;;;;;;2613110;54;21054;-77
2022/12/19 07:50:10;;;;;;;22.07;15.60;;;6.70;99.90;;;;;;2614383;54;22196;-76
2022/12/19 07:55:58;;;;;;;114.13;26.30;;;6.70;99.90;;;;;;2615867;54;20146;-78
2022/12/19 08:01:46;;;;;;;21.37;11.90;;;6.80;99.90;;;;;;2615779;54;20139;-77
2022/12/19 08:07:34;;;;;;;20.70;13.57;;;6.90;99.90;;;;;;2617435;54;20593;-77
2022/12/19 08:13:22;;;;;;;20.53;14.00;;;7.10;99.90;;;;;;2616661;54;20230;-79
2022/12/19 08:23:44;;;;;;;16.70;12.10;;;6.80;99.90;;;;;;2626592;54;20357;-81
2022/12/19 08:29:26;;;;;;;18.83;11.77;;;6.90;99.90;;;;;;2614352;39;20781;-77
2022/12/19 08:35:13;;;;;;;17.97;11.30;;;7.00;99.90;;;;;;2614627;54;21000;-77
2022/12/19 08:41:00;;;;;;;20.43;11.93;;;7.10;99.90;;;;;;2614796;54;20743;-77
2022/12/19 08:46:47;;;;;;;17.53;10.13;;;7.20;99.90;;;;;;2617344;54;20126;-80
2022/12/19 08:52:34;;;;;;;16.47;11.30;;;7.20;99.90;;;;;;2621387;46;20174;-79
2022/12/19 08:58:23;;;;;;;17.20;13.00;;;7.20;99.90;;;;;;2620355;54;20134;-80
2022/12/19 09:04:10;;;;;;;19.70;11.37;;;7.20;99.90;;;;;;2624984;54;20400;-81
2022/12/19 09:09:58;;;;;;;11.97;8.50;;;7.30;99.90;;;;;;2624760;54;20123;-82
2022/12/19 09:15:46;;;;;;;18.73;13.13;;;7.30;99.90;;;;;;2620780;54;20426;-78
2022/12/19 09:18:49;;;;;;;20.60;13.20;;;7.40;99.90;;;;;;2619304;47;20415;-79
2022/12/19 09:21:16;;;;;;;18.93;12.70;;;7.40;99.90;;;;;;2620919;54;20177;-79
2022/12/19 09:27:04;;;;;;;16.57;11.90;;;7.40;99.90;;;;;;2621350;54;20387;-80
2022/12/19 09:32:52;;;;;;;18.10;11.70;;;7.50;99.90;;;;;;2621167;54;20138;-83
2022/12/19 09:38:41;;;;;;;15.57;11.23;;;7.60;99.90;;;;;;2620658;54;20670;-79
2022/12/19 09:51:10;;;;;;;19.30;12.67;;;7.60;99.90;;;;;;2619922;54;20916;-79
2022/12/19 09:57:04;;;;;;;12.00;8.67;;;7.80;99.90;;;;;;2619624;54;20371;-79
2022/12/19 10:02:58;;;;;;;13.03;7.97;;;7.80;99.90;;;;;;2618844;54;20972;-78
2022/12/19 10:08:46;;;;;;;18.40;12.87;;;8.10;99.90;;;;;;2618224;54;20415;-79
2022/12/19 10:14:52;;;;;;;16.40;12.10;;;8.10;99.90;;;;;;2618092;54;20366;-78
2022/12/19 10:36:59;;;;;;;18.80;11.77;;;8.40;99.90;;;;;;2616375;54;20343;-76
2022/12/19 10:42:54;;;;;;;14.40;11.20;;;8.50;99.90;;;;;;2616064;54;20956;-78
2022/12/19 10:48:41;;;;;;;12.50;8.97;;;8.60;99.90;;;;;;2617365;54;20367;-79
2022/12/19 10:54:38;;;;;;;16.63;10.80;;;8.70;99.90;;;;;;2616839;54;20122;-78
2022/12/19 11:00:28;;;;;;;18.67;11.77;;;8.70;99.90;;;;;;2622030;54;20382;-78
2022/12/19 11:06:34;;;;;;;10.20;8.63;;;8.80;99.90;;;;;;2622482;54;20410;-79
2022/12/19 11:12:25;;;;;;;14.40;11.63;;;8.90;99.90;;;;;;2621664;54;20399;-79
2022/12/19 11:18:15;;;;;;;15.40;10.53;;;8.90;99.90;;;;;;2622346;54;20510;-80
2022/12/19 11:24:10;;;;;;;12.53;9.63;;;9.20;99.90;;;;;;2620865;54;20458;-79
2022/12/19 11:27:20;;;;;;;9.73;7.97;;;9.20;99.90;;;;;;2621186;47;20491;-79
2022/12/19 11:33:14;;;;;;;11.60;9.53;;;9.00;99.90;;;;;;2621558;54;20458;-78
2022/12/19 11:39:04;;;;;;;13.40;8.57;;;9.00;99.90;;;;;;2621108;54;20414;-78
2022/12/19 11:44:57;;;;;;;13.63;8.60;;;9.00;99.90;;;;;;2619981;54;20406;-79
2022/12/19 11:51:03;;;;;;;13.33;9.70;;;9.00;99.90;;;;;;2620255;54;20402;-79
2022/12/19 11:56:51;;;;;;;11.27;9.17;;;9.10;99.90;;;;;;2619543;54;20399;-78
2022/12/19 12:16:09;;;;;;;10.93;8.00;;;9.40;99.90;;;;;;2615453;54;20391;-77
2022/12/19 12:22:21;;;;;;;9.53;8.00;;;9.50;99.90;;;;;;2613884;54;20438;-78
2022/12/19 12:42:04;;;;;;;12.53;8.00;;;9.60;99.90;;;;;;2614219;54;20359;-78
2022/12/19 12:47:52;;;;;;;12.73;7.70;;;9.80;99.90;;;;;;2617583;54;20972;-77
2022/12/19 12:53:44;;;;;;;11.10;8.73;;;9.90;99.90;;;;;;2613031;54;20423;-77
2022/12/19 12:59:32;;;;;;;9.83;8.80;;;10.20;99.90;;;;;;2614858;54;20391;-80
2022/12/19 13:05:44;;;;;;;10.30;7.73;;;10.30;99.90;;;;;;2614241;54;20635;-77
2022/12/19 13:24:53;;;;;;;11.70;8.77;;;10.20;99.90;;;;;;2614544;54;20488;-77
2022/12/19 13:34:16;;;;;;;13.90;7.80;;;10.30;99.90;;;;;;2614760;39;20696;-77
2022/12/19 13:40:12;;;;;;;8.37;7.43;;;10.20;99.90;;;;;;2613223;54;20615;-77
2022/12/19 13:46:04;;;;;;;10.57;8.83;;;10.20;99.90;;;;;;2612897;54;20423;-77
2022/12/19 13:51:54;;;;;;;9.00;8.10;;;10.20;99.90;;;;;;2613494;54;20395;-78
2022/12/19 13:57:42;;;;;;;11.37;8.53;;;10.10;99.90;;;;;;2614738;54;20395;-78
2022/12/19 14:03:39;;;;;;;10.87;7.50;;;9.90;99.90;;;;;;2613748;54;20145;-78
2022/12/19 14:15:47;;;;;;;11.53;7.90;;;9.70;99.90;;;;;;2616049;54;20391;-77
2022/12/19 14:21:35;;;;;;;12.57;9.93;;;9.60;99.90;;;;;;2613804;54;20391;-77
2022/12/19 14:34:25;;;;;;;11.53;8.90;;;9.60;99.90;;;;;;2612085;54;21052;-74
2022/12/19 14:36:56;;;;;;;9.23;8.23;;;9.50;99.90;;;;;;2611112;54;20447;-76
2022/12/19 14:48:59;;;;;;;8.87;7.97;;;9.30;99.90;;;;;;2611893;54;20435;-76
2022/12/19 15:01:33;;;;;;;10.87;8.10;;;9.30;99.90;;;;;;2612561;54;20384;-76
2022/12/19 15:10:43;;;;;;;9.63;8.73;;;9.20;99.90;;;;;;2613742;54;20419;-76
2022/12/19 15:16:33;;;;;;;9.97;7.80;;;9.30;99.90;;;;;;2614598;54;20157;-76
2022/12/19 15:22:21;;;;;;;10.10;7.63;;;9.30;99.90;;;;;;2612742;54;20395;-76
2022/12/19 15:28:17;;;;;;;8.50;7.60;;;9.20;99.90;;;;;;2613880;54;20197;-75
2022/12/19 15:34:27;;;;;;;7.40;6.63;;;9.40;99.90;;;;;;2611270;54;20559;-76
2022/12/19 15:40:17;;;;;;;9.90;8.90;;;9.50;99.90;;;;;;2614724;54;20950;-76
2022/12/19 15:46:05;;;;;;;13.00;8.00;;;9.60;99.90;;;;;;2615328;54;20450;-77
2022/12/19 15:51:52;;;;;;;9.30;8.30;;;9.70;99.90;;;;;;2611399;54;20133;-78
2022/12/19 15:57:44;;;;;;;9.83;8.13;;;9.70;99.90;;;;;;2616387;54;20286;-78
2022/12/19 16:03:33;;;;;;;7.50;6.80;;;9.60;99.90;;;;;;2613810;54;20440;-79
2022/12/19 16:09:26;;;;;;;7.97;7.17;;;9.60;99.90;;;;;;2612975;54;20423;-75
2022/12/19 16:21:29;;;;;;;10.50;6.93;;;9.60;99.90;;;;;;2617372;54;20426;-77
2022/12/19 16:28:13;;;;;;;8.77;6.77;;;9.70;99.90;;;;;;2616999;54;20135;-75
2022/12/19 16:37:22;;;;;;;7.50;6.50;;;9.70;99.90;;;;;;2613783;46;20428;-76
2022/12/19 16:43:16;;;;;;;7.77;6.50;;;9.80;99.90;;;;;;2613588;54;20175;-79
2022/12/19 16:49:10;;;;;;;7.70;6.90;;;9.80;99.90;;;;;;2614732;54;20423;-78
2022/12/19 16:54:57;;;;;;;10.30;6.83;;;9.70;99.90;;;;;;2614396;54;20419;-78
2022/12/19 17:00:45;;;;;;;8.30;6.83;;;9.80;99.90;;;;;;2612098;46;21128;-78
2022/12/19 17:06:32;;;;;;;8.10;7.30;;;9.80;99.90;;;;;;2613858;54;20379;-78
2022/12/19 17:12:20;;;;;;;6.40;5.80;;;10.00;99.90;;;;;;2615301;54;20134;-77
2022/12/19 17:21:40;;;;;;;7.23;5.97;;;10.00;99.90;;;;;;2615011;54;20430;-78
2022/12/19 17:24:12;;;;;;;12.67;7.50;;;10.10;99.90;;;;;;2611246;47;20427;-78
2022/12/19 17:30:00;;;;;;;9.63;7.57;;;10.10;99.90;;;;;;2616297;54;20383;-78
2022/12/19 17:35:48;;;;;;;13.40;8.23;;;10.00;99.90;;;;;;2615853;54;20150;-78
2022/12/19 17:41:35;;;;;;;9.53;8.00;;;10.10;99.90;;;;;;2616365;39;20863;-78
2022/12/19 17:47:25;;;;;;;12.83;8.83;;;10.10;99.90;;;;;;2613241;54;20130;-77
2022/12/19 17:53:13;;;;;;;9.70;8.70;;;9.90;99.90;;;;;;2615313;39;20893;-76
2022/12/19 17:59:01;;;;;;;9.17;8.27;;;9.90;99.90;;;;;;2614824;54;20407;-75
2022/12/19 18:04:51;;;;;;;8.93;8.03;;;9.90;99.90;;;;;;2614471;54;20127;-77
2022/12/19 18:10:39;;;;;;;7.97;7.20;;;9.90;99.90;;;;;;2617358;54;20470;-79
2022/12/19 18:16:29;;;;;;;12.40;7.97;;;9.90;99.90;;;;;;2621007;54;20174;-78
2022/12/19 18:22:18;;;;;;;8.13;7.33;;;10.00;99.90;;;;;;2621588;46;20410;-78
2022/12/19 18:28:07;;;;;;;9.40;6.37;;;9.90;99.90;;;;;;2620479;54;20411;-79
2022/12/19 18:37:17;;;;;;;8.07;7.27;;;10.00;99.90;;;;;;2620936;54;20434;-77
2022/12/19 18:43:05;;;;;;;9.87;7.10;;;9.90;99.90;;;;;;2621445;54;20169;-79
2022/12/19 18:48:53;;;;;;;10.53;6.93;;;9.90;99.90;;;;;;2621537;54;20979;-80
2022/12/19 18:54:41;;;;;;;9.13;7.57;;;9.80;99.90;;;;;;2621330;54;20447;-79
2022/12/19 19:00:28;;;;;;;9.03;8.17;;;9.90;99.90;;;;;;2621396;31;20835;-78
2022/12/19 19:06:24;;;;;;;7.83;7.13;;;9.90;99.90;;;;;;2618790;54;20142;-78
2022/12/19 19:12:12;;;;;;;7.80;6.93;;;10.00;99.90;;;;;;2618499;54;20402;-79
2022/12/19 19:18:03;;;;;;;7.63;6.83;;;10.00;99.90;;;;;;2619936;54;20134;-77
2022/12/19 19:30:23;;;;;;;7.33;6.63;;;10.10;99.90;;;;;;2617984;54;20417;-79
2022/12/19 19:39:33;;;;;;;9.10;7.47;;;10.10;99.90;;;;;;2619132;31;20847;-79
2022/12/19 19:45:22;;;;;;;8.20;7.40;;;10.20;99.90;;;;;;2616638;54;20456;-78
2022/12/19 19:51:10;;;;;;;8.13;6.60;;;10.30;99.90;;;;;;2617210;54;20416;-79
2022/12/19 19:56:59;;;;;;;6.57;5.97;;;10.30;99.90;;;;;;2617218;54;20399;-79
2022/12/19 20:02:47;;;;;;;7.70;6.13;;;10.50;99.90;;;;;;2617195;54;20150;-79
2022/12/19 20:08:35;;;;;;;7.50;5.70;;;10.50;99.90;;;;;;2618181;54;20519;-80
2022/12/19 20:14:25;;;;;;;6.37;5.80;;;10.50;99.90;;;;;;2618048;54;20524;-79
2022/12/19 20:20:13;;;;;;;6.07;5.50;;;10.70;99.90;;;;;;2618604;54;20422;-77
2022/12/19 20:26:01;;;;;;;6.33;5.30;;;10.60;99.90;;;;;;2618559;54;20146;-78
2022/12/19 20:31:50;;;;;;;7.43;5.97;;;10.60;99.90;;;;;;2617897;54;20984;-78
2022/12/19 20:34:53;;;;;;;8.77;6.23;;;10.50;99.90;;;;;;2617661;54;20428;-78
2022/12/19 20:37:19;;;;;;;6.33;5.73;;;10.50;99.90;;;;;;2618121;54;20418;-78
2022/12/19 20:43:06;;;;;;;8.10;6.03;;;10.60;99.90;;;;;;2617068;54;20146;-79
2022/12/19 20:48:56;;;;;;;7.27;6.57;;;10.60;99.90;;;;;;2618382;54;20238;-80
2022/12/19 20:54:44;;;;;;;8.43;6.63;;;10.70;99.90;;;;;;2618041;54;20418;-78
2022/12/19 21:00:31;;;;;;;7.00;6.30;;;10.80;99.90;;;;;;2616982;54;20210;-78
2022/12/19 21:06:21;;;;;;;6.07;5.47;;;10.70;99.90;;;;;;2618201;54;20153;-78
2022/12/19 21:12:09;;;;;;;7.53;5.40;;;10.90;99.90;;;;;;2616263;54;20423;-78
2022/12/19 21:18:00;;;;;;;7.67;6.37;;;10.90;99.90;;;;;;2616346;54;20422;-78
2022/12/19 21:23:48;;;;;;;14.63;5.70;;;10.90;99.90;;;;;;2616492;54;20951;-79
2022/12/19 21:29:36;;;;;;;5.30;3.97;;;10.90;99.90;;;;;;2615621;54;20411;-80
2022/12/19 21:39:30;;;;;;;11.33;6.30;;;10.90;99.90;;;;;;2616981;54;20350;-78
2022/12/19 21:45:17;;;;;;;5.93;5.43;;;11.00;99.90;;;;;;2616355;54;20383;-78
2022/12/19 21:51:06;;;;;;;7.53;6.03;;;11.00;99.90;;;;;;2615094;54;20155;-77
2022/12/19 21:56:54;;;;;;;5.30;4.80;;;11.10;99.90;;;;;;2615818;39;20875;-77
2022/12/19 22:02:46;;;;;;;6.30;5.70;;;11.20;99.90;;;;;;2616673;39;20553;-78
2022/12/19 22:08:35;;;;;;;5.87;5.37;;;11.10;99.90;;;;;;2616361;46;20415;-79
2022/12/19 22:14:22;;;;;;;5.57;5.00;;;11.30;99.90;;;;;;2616914;54;20395;-78
2022/12/19 22:20:10;;;;;;;6.50;5.90;;;11.40;99.90;;;;;;2615497;54;20134;-77
2022/12/19 22:37:01;;;;;;;5.50;5.00;;;11.10;99.90;;;;;;2613655;54;20442;-78
2022/12/19 22:46:15;;;;;;;6.37;4.17;;;11.10;99.90;;;;;;2614079;54;20390;-77
2022/12/19 22:52:03;;;;;;;5.80;5.23;;;11.20;99.90;;;;;;2614841;54;20403;-79
2022/12/19 22:57:51;;;;;;;6.77;5.23;;;11.30;99.90;;;;;;2615839;54;20135;-78
2022/12/19 23:03:40;;;;;;;5.23;4.83;;;11.20;99.90;;;;;;2615161;54;20250;-77
2022/12/19 23:09:27;;;;;;;5.50;4.50;;;11.30;99.90;;;;;;2614236;54;20394;-78
2022/12/19 23:15:15;;;;;;;6.37;5.17;;;11.20;99.90;;;;;;2614431;54;20134;-79
2022/12/19 23:21:18;;;;;;;5.00;4.40;;;11.20;99.90;;;;;;2614561;39;20530;-78
2022/12/19 23:27:05;;;;;;;5.17;4.67;;;11.30;99.90;;;;;;2614626;39;20782;-78
2022/12/19 23:32:53;;;;;;;5.80;4.63;;;11.50;99.90;;;;;;2615972;54;20146;-78
2022/12/19 23:38:42;;;;;;;6.20;4.30;;;11.60;99.90;;;;;;2616501;54;20142;-78
2022/12/19 23:41:44;;;;;;;4.80;4.30;;;11.60;99.90;;;;;;2613963;54;20430;-76
2022/12/19 23:44:10;;;;;;;5.80;4.40;;;11.50;99.90;;;;;;2614507;47;20456;-78
2022/12/19 23:49:58;;;;;;;5.20;4.70;;;11.60;99.90;;;;;;2615492;54;20359;-78
2022/12/19 23:55:48;;;;;;;6.07;4.20;;;11.60;99.90;;;;;;2614487;54;20146;-77
